Bolingbrook, Illinois
Current Conditions -  °F | °C
As of 6:15 PM on Monday 20 Oct 2014 (Local Time) from KLOT Reporting Station
Broken Clouds Broken Clouds  
Wind Chill: 57°   Ceiling: 6000
Heat Index: 57°   Visibility: 10mi
Dew Point: 41°   Wind: 7mph
Humidity: 55%   Direction: 20°NNE
Pressure: 29.94"   Gusts: NA
Location:  41.7°N, 88.08°W
Report Text: KLOT 202315Z AUTO 02006KT 10SM BKN060 14/05 A2994 RMK AO2 T01400051
Loading
Personal Weather Stations






























Interactive Weather Map
Tropical Storm Tracking
New forecast layout! Learn more

10-Day Weather Forecast

Advertisements
Track Severe Weather on mobile